sensor_id;sensor_type;location;lat;lon;timestamp;P1;durP1;ratioP1;P2;durP2;ratioP2
18574;SDS011;9417;16.484;102.872;2023-07-13T00:01:48;15.43;;;12.90;;
18574;SDS011;9417;16.484;102.872;2023-07-13T00:03:56;14.80;;;12.75;;
18574;SDS011;9417;16.484;102.872;2023-07-13T00:06:05;18.58;;;14.65;;
18574;SDS011;9417;16.484;102.872;2023-07-13T00:08:13;12.52;;;7.53;;
18574;SDS011;9417;16.484;102.872;2023-07-13T00:10:21;11.63;;;6.47;;
18574;SDS011;9417;16.484;102.872;2023-07-13T00:12:28;9.55;;;5.97;;
18574;SDS011;9417;16.484;102.872;2023-07-13T00:14:37;10.65;;;7.35;;
18574;SDS011;9417;16.484;102.872;2023-07-13T00:16:44;11.80;;;7.03;;
18574;SDS011;9417;16.484;102.872;2023-07-13T00:18:51;9.00;;;6.25;;
18574;SDS011;9417;16.484;102.872;2023-07-13T00:20:58;10.23;;;6.72;;
18574;SDS011;9417;16.484;102.872;2023-07-13T00:23:10;9.15;;;5.80;;
18574;SDS011;9417;16.484;102.872;2023-07-13T00:25:17;8.88;;;6.00;;
18574;SDS011;9417;16.484;102.872;2023-07-13T00:27:25;9.30;;;5.55;;
18574;SDS011;9417;16.484;102.872;2023-07-13T00:29:33;8.15;;;5.40;;
18574;SDS011;9417;16.484;102.872;2023-07-13T00:31:43;13.90;;;7.15;;
18574;SDS011;9417;16.484;102.872;2023-07-13T00:33:51;13.00;;;8.38;;
18574;SDS011;9417;16.484;102.872;2023-07-13T00:35:58;8.32;;;6.53;;
18574;SDS011;9417;16.484;102.872;2023-07-13T00:38:04;7.40;;;5.10;;
18574;SDS011;9417;16.484;102.872;2023-07-13T00:40:14;7.55;;;5.32;;
18574;SDS011;9417;16.484;102.872;2023-07-13T00:42:22;5.68;;;4.82;;
18574;SDS011;9417;16.484;102.872;2023-07-13T00:44:29;7.30;;;4.78;;
18574;SDS011;9417;16.484;102.872;2023-07-13T00:46:36;5.72;;;4.05;;
18574;SDS011;9417;16.484;102.872;2023-07-13T00:48:43;6.20;;;4.80;;
18574;SDS011;9417;16.484;102.872;2023-07-13T00:50:52;5.80;;;4.65;;
18574;SDS011;9417;16.484;102.872;2023-07-13T00:53:02;8.77;;;3.95;;
18574;SDS011;9417;16.484;102.872;2023-07-13T00:55:09;7.00;;;4.70;;
18574;SDS011;9417;16.484;102.872;2023-07-13T00:57:20;6.43;;;4.15;;
18574;SDS011;9417;16.484;102.872;2023-07-13T00:59:27;6.05;;;4.45;;
18574;SDS011;9417;16.484;102.872;2023-07-13T01:01:36;7.80;;;4.43;;
18574;SDS011;9417;16.484;102.872;2023-07-13T01:03:44;8.93;;;4.53;;
18574;SDS011;9417;16.484;102.872;2023-07-13T01:05:51;6.03;;;4.45;;
18574;SDS011;9417;16.484;102.872;2023-07-13T01:07:59;5.57;;;4.03;;
18574;SDS011;9417;16.484;102.872;2023-07-13T01:10:08;6.57;;;3.90;;
18574;SDS011;9417;16.484;102.872;2023-07-13T01:12:18;7.28;;;4.40;;
18574;SDS011;9417;16.484;102.872;2023-07-13T01:14:25;4.93;;;4.18;;
18574;SDS011;9417;16.484;102.872;2023-07-13T01:16:32;5.03;;;3.40;;
18574;SDS011;9417;16.484;102.872;2023-07-13T01:18:41;6.18;;;3.72;;
18574;SDS011;9417;16.484;102.872;2023-07-13T01:20:51;6.10;;;3.92;;
18574;SDS011;9417;16.484;102.872;2023-07-13T01:22:59;5.22;;;3.00;;
18574;SDS011;9417;16.484;102.872;2023-07-13T01:25:06;3.53;;;2.70;;
18574;SDS011;9417;16.484;102.872;2023-07-13T01:27:16;3.35;;;2.97;;
18574;SDS011;9417;16.484;102.872;2023-07-13T01:29:26;3.95;;;2.42;;
18574;SDS011;9417;16.484;102.872;2023-07-13T01:31:33;4.28;;;2.78;;
18574;SDS011;9417;16.484;102.872;2023-07-13T01:33:41;4.30;;;2.78;;
18574;SDS011;9417;16.484;102.872;2023-07-13T01:35:48;4.93;;;3.83;;
18574;SDS011;9417;16.484;102.872;2023-07-13T01:37:57;4.10;;;3.70;;
18574;SDS011;9417;16.484;102.872;2023-07-13T01:40:04;5.07;;;3.95;;
18574;SDS011;9417;16.484;102.872;2023-07-13T01:42:12;5.10;;;4.70;;
18574;SDS011;9417;16.484;102.872;2023-07-13T01:44:19;6.22;;;4.95;;
18574;SDS011;9417;16.484;102.872;2023-07-13T01:46:27;5.85;;;5.22;;
18574;SDS011;9417;16.484;102.872;2023-07-13T01:48:34;9.60;;;5.50;;
18574;SDS011;9417;16.484;102.872;2023-07-13T01:50:41;7.53;;;5.35;;
18574;SDS011;9417;16.484;102.872;2023-07-13T01:52:50;6.03;;;5.43;;
18574;SDS011;9417;16.484;102.872;2023-07-13T01:54:57;6.80;;;6.10;;
18574;SDS011;9417;16.484;102.872;2023-07-13T01:57:05;6.88;;;6.18;;
18574;SDS011;9417;16.484;102.872;2023-07-13T01:59:12;7.28;;;6.45;;
18574;SDS011;9417;16.484;102.872;2023-07-13T02:01:19;6.75;;;6.05;;
18574;SDS011;9417;16.484;102.872;2023-07-13T02:03:29;8.18;;;6.70;;
18574;SDS011;9417;16.484;102.872;2023-07-13T02:05:36;7.85;;;5.97;;
18574;SDS011;9417;16.484;102.872;2023-07-13T02:07:44;6.53;;;5.93;;
18574;SDS011;9417;16.484;102.872;2023-07-13T02:09:52;6.38;;;5.57;;
18574;SDS011;9417;16.484;102.872;2023-07-13T02:12:00;5.90;;;5.40;;
18574;SDS011;9417;16.484;102.872;2023-07-13T02:14:08;6.15;;;5.57;;
18574;SDS011;9417;16.484;102.872;2023-07-13T02:16:15;7.15;;;5.57;;
18574;SDS011;9417;16.484;102.872;2023-07-13T02:18:22;7.43;;;5.80;;
18574;SDS011;9417;16.484;102.872;2023-07-13T02:20:29;5.97;;;5.38;;
18574;SDS011;9417;16.484;102.872;2023-07-13T02:22:37;5.72;;;5.00;;
18574;SDS011;9417;16.484;102.872;2023-07-13T02:24:44;6.97;;;5.03;;
18574;SDS011;9417;16.484;102.872;2023-07-13T02:26:54;6.32;;;5.00;;
18574;SDS011;9417;16.484;102.872;2023-07-13T02:29:02;6.18;;;5.38;;
18574;SDS011;9417;16.484;102.872;2023-07-13T02:31:09;10.70;;;5.03;;
18574;SDS011;9417;16.484;102.872;2023-07-13T02:33:20;5.68;;;5.07;;
18574;SDS011;9417;16.484;102.872;2023-07-13T02:35:27;5.53;;;5.03;;
18574;SDS011;9417;16.484;102.872;2023-07-13T02:37:34;6.95;;;5.13;;
18574;SDS011;9417;16.484;102.872;2023-07-13T02:39:41;8.00;;;5.25;;
18574;SDS011;9417;16.484;102.872;2023-07-13T02:41:48;7.05;;;4.90;;
18574;SDS011;9417;16.484;102.872;2023-07-13T02:43:57;5.78;;;5.03;;
18574;SDS011;9417;16.484;102.872;2023-07-13T02:46:07;6.93;;;6.28;;
18574;SDS011;9417;16.484;102.872;2023-07-13T02:48:14;7.18;;;5.90;;
18574;SDS011;9417;16.484;102.872;2023-07-13T02:50:22;7.43;;;6.68;;
18574;SDS011;9417;16.484;102.872;2023-07-13T02:52:29;6.40;;;5.80;;
18574;SDS011;9417;16.484;102.872;2023-07-13T02:54:36;6.55;;;6.00;;
18574;SDS011;9417;16.484;102.872;2023-07-13T02:56:43;5.93;;;5.30;;
18574;SDS011;9417;16.484;102.872;2023-07-13T02:58:51;8.05;;;5.43;;
18574;SDS011;9417;16.484;102.872;2023-07-13T03:00:59;5.70;;;3.33;;
18574;SDS011;9417;16.484;102.872;2023-07-13T03:03:12;4.30;;;3.50;;
18574;SDS011;9417;16.484;102.872;2023-07-13T03:05:19;6.90;;;3.38;;
18574;SDS011;9417;16.484;102.872;2023-07-13T03:07:26;5.75;;;3.85;;
18574;SDS011;9417;16.484;102.872;2023-07-13T03:09:35;7.10;;;3.60;;
18574;SDS011;9417;16.484;102.872;2023-07-13T03:11:43;5.65;;;3.40;;
18574;SDS011;9417;16.484;102.872;2023-07-13T03:13:58;7.65;;;3.70;;
18574;SDS011;9417;16.484;102.872;2023-07-13T03:16:11;10.38;;;9.57;;
18574;SDS011;9417;16.484;102.872;2023-07-13T03:18:23;18.33;;;16.98;;
18574;SDS011;9417;16.484;102.872;2023-07-13T03:20:35;20.02;;;18.80;;
18574;SDS011;9417;16.484;102.872;2023-07-13T03:22:43;16.60;;;15.13;;
18574;SDS011;9417;16.484;102.872;2023-07-13T03:24:51;12.40;;;11.32;;
18574;SDS011;9417;16.484;102.872;2023-07-13T03:27:01;4.25;;;3.85;;
18574;SDS011;9417;16.484;102.872;2023-07-13T03:29:12;7.20;;;4.00;;
18574;SDS011;9417;16.484;102.872;2023-07-13T03:31:22;3.83;;;3.38;;
18574;SDS011;9417;16.484;102.872;2023-07-13T03:33:32;4.00;;;3.30;;
18574;SDS011;9417;16.484;102.872;2023-07-13T03:35:40;5.30;;;3.70;;
18574;SDS011;9417;16.484;102.872;2023-07-13T03:37:46;4.03;;;3.20;;
18574;SDS011;9417;16.484;102.872;2023-07-13T03:39:55;5.28;;;4.88;;
18574;SDS011;9417;16.484;102.872;2023-07-13T03:42:05;7.63;;;6.95;;
18574;SDS011;9417;16.484;102.872;2023-07-13T03:44:13;7.07;;;6.30;;
18574;SDS011;9417;16.484;102.872;2023-07-13T03:46:27;12.43;;;6.78;;
18574;SDS011;9417;16.484;102.872;2023-07-13T03:48:35;6.63;;;5.30;;
18574;SDS011;9417;16.484;102.872;2023-07-13T03:50:41;5.80;;;5.40;;
18574;SDS011;9417;16.484;102.872;2023-07-13T03:52:48;6.53;;;5.93;;
18574;SDS011;9417;16.484;102.872;2023-07-13T03:54:55;6.18;;;5.47;;
18574;SDS011;9417;16.484;102.872;2023-07-13T03:57:03;5.78;;;5.28;;
18574;SDS011;9417;16.484;102.872;2023-07-13T03:59:11;7.70;;;6.25;;
18574;SDS011;9417;16.484;102.872;2023-07-13T04:01:20;5.85;;;5.38;;
18574;SDS011;9417;16.484;102.872;2023-07-13T04:03:32;6.13;;;5.53;;
18574;SDS011;9417;16.484;102.872;2023-07-13T04:05:40;6.60;;;5.57;;
18574;SDS011;9417;16.484;102.872;2023-07-13T04:07:47;6.40;;;5.65;;
18574;SDS011;9417;16.484;102.872;2023-07-13T04:09:54;7.97;;;5.40;;
18574;SDS011;9417;16.484;102.872;2023-07-13T04:12:02;6.20;;;5.70;;
18574;SDS011;9417;16.484;102.872;2023-07-13T04:14:09;5.88;;;5.47;;
18574;SDS011;9417;16.484;102.872;2023-07-13T04:16:17;6.30;;;5.80;;
18574;SDS011;9417;16.484;102.872;2023-07-13T04:18:25;7.95;;;7.35;;
18574;SDS011;9417;16.484;102.872;2023-07-13T04:20:33;7.00;;;6.40;;
18574;SDS011;9417;16.484;102.872;2023-07-13T04:22:40;6.32;;;5.65;;
18574;SDS011;9417;16.484;102.872;2023-07-13T04:24:48;6.82;;;6.20;;
18574;SDS011;9417;16.484;102.872;2023-07-13T04:26:55;5.93;;;5.32;;
18574;SDS011;9417;16.484;102.872;2023-07-13T04:29:04;5.97;;;5.47;;
18574;SDS011;9417;16.484;102.872;2023-07-13T04:31:11;5.38;;;4.88;;
18574;SDS011;9417;16.484;102.872;2023-07-13T04:33:19;5.55;;;5.03;;
18574;SDS011;9417;16.484;102.872;2023-07-13T04:35:27;5.30;;;4.80;;
18574;SDS011;9417;16.484;102.872;2023-07-13T04:37:36;4.85;;;3.30;;
18574;SDS011;9417;16.484;102.872;2023-07-13T04:39:43;4.15;;;3.10;;
18574;SDS011;9417;16.484;102.872;2023-07-13T04:41:50;4.72;;;3.17;;
18574;SDS011;9417;16.484;102.872;2023-07-13T04:43:59;5.40;;;3.47;;
18574;SDS011;9417;16.484;102.872;2023-07-13T04:46:07;3.95;;;3.47;;
18574;SDS011;9417;16.484;102.872;2023-07-13T04:48:17;6.68;;;3.63;;
18574;SDS011;9417;16.484;102.872;2023-07-13T04:50:24;3.85;;;3.00;;
18574;SDS011;9417;16.484;102.872;2023-07-13T04:52:31;4.90;;;2.97;;
18574;SDS011;9417;16.484;102.872;2023-07-13T04:54:40;5.68;;;3.70;;
18574;SDS011;9417;16.484;102.872;2023-07-13T04:56:47;6.05;;;3.40;;
18574;SDS011;9417;16.484;102.872;2023-07-13T04:58:54;7.10;;;3.20;;
18574;SDS011;9417;16.484;102.872;2023-07-13T05:01:02;4.20;;;3.00;;
18574;SDS011;9417;16.484;102.872;2023-07-13T05:03:11;3.70;;;2.90;;
18574;SDS011;9417;16.484;102.872;2023-07-13T05:05:19;3.75;;;3.35;;
18574;SDS011;9417;16.484;102.872;2023-07-13T05:07:26;3.80;;;2.88;;
18574;SDS011;9417;16.484;102.872;2023-07-13T05:09:33;3.28;;;2.97;;
18574;SDS011;9417;16.484;102.872;2023-07-13T05:11:46;4.10;;;3.20;;
18574;SDS011;9417;16.484;102.872;2023-07-13T05:13:54;5.32;;;4.70;;
18574;SDS011;9417;16.484;102.872;2023-07-13T05:16:02;6.47;;;6.07;;
18574;SDS011;9417;16.484;102.872;2023-07-13T05:18:11;7.20;;;6.70;;
18574;SDS011;9417;16.484;102.872;2023-07-13T05:20:18;3.83;;;3.10;;
18574;SDS011;9417;16.484;102.872;2023-07-13T05:22:26;3.90;;;3.40;;
18574;SDS011;9417;16.484;102.872;2023-07-13T05:24:33;4.03;;;3.58;;
18574;SDS011;9417;16.484;102.872;2023-07-13T05:26:40;4.13;;;3.15;;
18574;SDS011;9417;16.484;102.872;2023-07-13T05:28:49;4.88;;;3.60;;
18574;SDS011;9417;16.484;102.872;2023-07-13T05:30:56;6.10;;;4.53;;
18574;SDS011;9417;16.484;102.872;2023-07-13T05:33:04;6.82;;;6.32;;
18574;SDS011;9417;16.484;102.872;2023-07-13T05:35:11;7.68;;;7.07;;
18574;SDS011;9417;16.484;102.872;2023-07-13T05:37:19;7.30;;;6.68;;
18574;SDS011;9417;16.484;102.872;2023-07-13T05:39:26;7.00;;;6.50;;
18574;SDS011;9417;16.484;102.872;2023-07-13T05:41:33;6.65;;;6.15;;
18574;SDS011;9417;16.484;102.872;2023-07-13T05:43:41;7.55;;;6.95;;
18574;SDS011;9417;16.484;102.872;2023-07-13T05:45:50;8.25;;;7.65;;
18574;SDS011;9417;16.484;102.872;2023-07-13T05:47:59;8.23;;;7.60;;
18574;SDS011;9417;16.484;102.872;2023-07-13T05:50:07;7.95;;;7.35;;
18574;SDS011;9417;16.484;102.872;2023-07-13T05:52:14;8.15;;;7.55;;
18574;SDS011;9417;16.484;102.872;2023-07-13T05:54:21;7.95;;;7.45;;
18574;SDS011;9417;16.484;102.872;2023-07-13T05:56:29;6.78;;;6.22;;
18574;SDS011;9417;16.484;102.872;2023-07-13T05:58:36;7.10;;;6.50;;
18574;SDS011;9417;16.484;102.872;2023-07-13T06:00:43;7.07;;;6.65;;
18574;SDS011;9417;16.484;102.872;2023-07-13T06:02:53;7.05;;;6.55;;
18574;SDS011;9417;16.484;102.872;2023-07-13T06:07:09;7.15;;;6.65;;
18574;SDS011;9417;16.484;102.872;2023-07-13T06:09:16;8.50;;;7.80;;
18574;SDS011;9417;16.484;102.872;2023-07-13T06:11:24;8.13;;;7.55;;
18574;SDS011;9417;16.484;102.872;2023-07-13T06:13:33;9.00;;;8.40;;
18574;SDS011;9417;16.484;102.872;2023-07-13T06:15:41;7.38;;;6.88;;
18574;SDS011;9417;16.484;102.872;2023-07-13T06:17:48;7.82;;;7.32;;
18574;SDS011;9417;16.484;102.872;2023-07-13T06:19:57;8.05;;;7.55;;
18574;SDS011;9417;16.484;102.872;2023-07-13T06:22:05;8.60;;;7.88;;
18574;SDS011;9417;16.484;102.872;2023-07-13T06:24:12;8.82;;;8.02;;
18574;SDS011;9417;16.484;102.872;2023-07-13T06:26:19;8.15;;;7.50;;
18574;SDS011;9417;16.484;102.872;2023-07-13T06:28:27;8.30;;;7.65;;
18574;SDS011;9417;16.484;102.872;2023-07-13T06:30:35;8.30;;;7.70;;
18574;SDS011;9417;16.484;102.872;2023-07-13T06:32:44;8.07;;;7.57;;
18574;SDS011;9417;16.484;102.872;2023-07-13T06:34:51;7.40;;;6.80;;
18574;SDS011;9417;16.484;102.872;2023-07-13T06:37:01;7.82;;;7.07;;
18574;SDS011;9417;16.484;102.872;2023-07-13T06:39:08;7.45;;;6.93;;
18574;SDS011;9417;16.484;102.872;2023-07-13T06:41:15;11.43;;;7.30;;
18574;SDS011;9417;16.484;102.872;2023-07-13T06:43:22;4.40;;;4.00;;
18574;SDS011;9417;16.484;102.872;2023-07-13T06:45:30;4.53;;;3.53;;
18574;SDS011;9417;16.484;102.872;2023-07-13T06:47:38;4.75;;;3.55;;
18574;SDS011;9417;16.484;102.872;2023-07-13T06:49:45;9.43;;;8.68;;
18574;SDS011;9417;16.484;102.872;2023-07-13T06:51:52;8.30;;;7.50;;
18574;SDS011;9417;16.484;102.872;2023-07-13T06:54:01;8.73;;;7.88;;
18574;SDS011;9417;16.484;102.872;2023-07-13T06:56:08;12.10;;;8.73;;
18574;SDS011;9417;16.484;102.872;2023-07-13T06:58:16;9.43;;;8.65;;
18574;SDS011;9417;16.484;102.872;2023-07-13T07:00:24;9.70;;;9.00;;
18574;SDS011;9417;16.484;102.872;2023-07-13T07:02:31;10.63;;;9.82;;
18574;SDS011;9417;16.484;102.872;2023-07-13T07:04:36;10.68;;;9.88;;
18574;SDS011;9417;16.484;102.872;2023-07-13T07:06:44;9.73;;;8.68;;
18574;SDS011;9417;16.484;102.872;2023-07-13T07:08:51;10.43;;;9.45;;
18574;SDS011;9417;16.484;102.872;2023-07-13T07:11:00;8.40;;;7.50;;
18574;SDS011;9417;16.484;102.872;2023-07-13T07:13:06;6.63;;;6.13;;
18574;SDS011;9417;16.484;102.872;2023-07-13T07:15:13;6.50;;;5.90;;
18574;SDS011;9417;16.484;102.872;2023-07-13T07:17:20;6.60;;;6.05;;
18574;SDS011;9417;16.484;102.872;2023-07-13T07:19:29;6.38;;;5.88;;
18574;SDS011;9417;16.484;102.872;2023-07-13T07:21:38;6.68;;;6.07;;
18574;SDS011;9417;16.484;102.872;2023-07-13T07:23:45;6.20;;;5.70;;
18574;SDS011;9417;16.484;102.872;2023-07-13T07:25:53;5.82;;;5.32;;
18574;SDS011;9417;16.484;102.872;2023-07-13T07:28:01;5.95;;;5.45;;
18574;SDS011;9417;16.484;102.872;2023-07-13T07:32:20;6.78;;;5.93;;
18574;SDS011;9417;16.484;102.872;2023-07-13T07:34:29;6.43;;;5.93;;
18574;SDS011;9417;16.484;102.872;2023-07-13T07:36:37;6.65;;;6.05;;
18574;SDS011;9417;16.484;102.872;2023-07-13T07:38:47;6.75;;;5.95;;
18574;SDS011;9417;16.484;102.872;2023-07-13T07:40:54;8.45;;;7.85;;
18574;SDS011;9417;16.484;102.872;2023-07-13T07:43:05;7.85;;;6.80;;
18574;SDS011;9417;16.484;102.872;2023-07-13T07:45:13;9.50;;;6.10;;
18574;SDS011;9417;16.484;102.872;2023-07-13T07:47:20;7.32;;;6.25;;
18574;SDS011;9417;16.484;102.872;2023-07-13T07:49:28;6.95;;;6.35;;
18574;SDS011;9417;16.484;102.872;2023-07-13T07:51:35;9.73;;;6.82;;
18574;SDS011;9417;16.484;102.872;2023-07-13T07:53:42;6.18;;;5.57;;
18574;SDS011;9417;16.484;102.872;2023-07-13T07:55:50;7.00;;;6.40;;
18574;SDS011;9417;16.484;102.872;2023-07-13T07:58:18;7.65;;;6.82;;
18574;SDS011;9417;16.484;102.872;2023-07-13T08:00:28;8.85;;;6.53;;
18574;SDS011;9417;16.484;102.872;2023-07-13T08:02:56;7.93;;;6.70;;
18574;SDS011;9417;16.484;102.872;2023-07-13T08:05:23;7.55;;;6.82;;
18574;SDS011;9417;16.484;102.872;2023-07-13T08:07:33;6.22;;;5.70;;
18574;SDS011;9417;16.484;102.872;2023-07-13T08:09:40;7.35;;;6.00;;
18574;SDS011;9417;16.484;102.872;2023-07-13T08:11:47;5.97;;;5.35;;
18574;SDS011;9417;16.484;102.872;2023-07-13T08:14:00;8.02;;;4.97;;
18574;SDS011;9417;16.484;102.872;2023-07-13T08:16:07;5.38;;;4.38;;
18574;SDS011;9417;16.484;102.872;2023-07-13T08:18:15;6.45;;;4.40;;
18574;SDS011;9417;16.484;102.872;2023-07-13T08:20:22;5.72;;;3.83;;
18574;SDS011;9417;16.484;102.872;2023-07-13T08:22:29;5.82;;;4.03;;
18574;SDS011;9417;16.484;102.872;2023-07-13T08:24:37;4.60;;;3.67;;
18574;SDS011;9417;16.484;102.872;2023-07-13T08:26:46;4.60;;;3.47;;
18574;SDS011;9417;16.484;102.872;2023-07-13T08:28:53;4.07;;;3.67;;
18574;SDS011;9417;16.484;102.872;2023-07-13T08:31:02;4.45;;;4.00;;
18574;SDS011;9417;16.484;102.872;2023-07-13T08:33:11;6.03;;;4.75;;
18574;SDS011;9417;16.484;102.872;2023-07-13T08:35:18;8.10;;;5.20;;
18574;SDS011;9417;16.484;102.872;2023-07-13T08:37:25;6.90;;;4.63;;
18574;SDS011;9417;16.484;102.872;2023-07-13T08:39:32;6.50;;;4.40;;
18574;SDS011;9417;16.484;102.872;2023-07-13T08:41:39;4.78;;;4.28;;
18574;SDS011;9417;16.484;102.872;2023-07-13T08:43:47;5.93;;;4.68;;
18574;SDS011;9417;16.484;102.872;2023-07-13T08:45:58;6.38;;;4.70;;
18574;SDS011;9417;16.484;102.872;2023-07-13T08:48:11;7.68;;;5.60;;
18574;SDS011;9417;16.484;102.872;2023-07-13T08:50:25;7.70;;;4.78;;
18574;SDS011;9417;16.484;102.872;2023-07-13T08:52:56;6.25;;;4.50;;
18574;SDS011;9417;16.484;102.872;2023-07-13T08:55:04;6.07;;;4.13;;
18574;SDS011;9417;16.484;102.872;2023-07-13T08:57:18;4.88;;;4.30;;
18574;SDS011;9417;16.484;102.872;2023-07-13T08:59:28;6.95;;;4.63;;
18574;SDS011;9417;16.484;102.872;2023-07-13T09:01:44;6.63;;;4.07;;
18574;SDS011;9417;16.484;102.872;2023-07-13T09:04:03;7.45;;;4.07;;
18574;SDS011;9417;16.484;102.872;2023-07-13T09:06:14;5.78;;;4.20;;
18574;SDS011;9417;16.484;102.872;2023-07-13T09:08:29;6.82;;;4.70;;
18574;SDS011;9417;16.484;102.872;2023-07-13T09:10:48;7.68;;;5.80;;
18574;SDS011;9417;16.484;102.872;2023-07-13T09:13:04;8.80;;;6.43;;
18574;SDS011;9417;16.484;102.872;2023-07-13T09:15:29;11.30;;;6.97;;
18574;SDS011;9417;16.484;102.872;2023-07-13T09:17:40;23.38;;;20.77;;
18574;SDS011;9417;16.484;102.872;2023-07-13T09:19:54;23.05;;;20.70;;
18574;SDS011;9417;16.484;102.872;2023-07-13T09:22:12;22.38;;;20.17;;
18574;SDS011;9417;16.484;102.872;2023-07-13T09:24:27;13.05;;;9.25;;
18574;SDS011;9417;16.484;102.872;2023-07-13T09:26:40;14.13;;;8.00;;
18574;SDS011;9417;16.484;102.872;2023-07-13T09:28:48;13.15;;;8.88;;
18574;SDS011;9417;16.484;102.872;2023-07-13T09:31:00;12.80;;;8.68;;
18574;SDS011;9417;16.484;102.872;2023-07-13T09:33:11;13.07;;;8.50;;
18574;SDS011;9417;16.484;102.872;2023-07-13T09:35:20;10.27;;;8.30;;
18574;SDS011;9417;16.484;102.872;2023-07-13T09:37:30;10.90;;;8.95;;
18574;SDS011;9417;16.484;102.872;2023-07-13T09:39:39;10.45;;;8.70;;
18574;SDS011;9417;16.484;102.872;2023-07-13T09:41:49;11.90;;;8.35;;
18574;SDS011;9417;16.484;102.872;2023-07-13T09:44:00;14.27;;;8.50;;
18574;SDS011;9417;16.484;102.872;2023-07-13T09:46:19;20.33;;;16.15;;
18574;SDS011;9417;16.484;102.872;2023-07-13T09:48:30;11.73;;;7.88;;
18574;SDS011;9417;16.484;102.872;2023-07-13T09:50:41;13.55;;;7.68;;
18574;SDS011;9417;16.484;102.872;2023-07-13T09:52:49;10.48;;;7.10;;
18574;SDS011;9417;16.484;102.872;2023-07-13T09:54:57;11.80;;;7.05;;
18574;SDS011;9417;16.484;102.872;2023-07-13T09:57:12;11.00;;;6.78;;
18574;SDS011;9417;16.484;102.872;2023-07-13T09:59:21;9.88;;;6.85;;
18574;SDS011;9417;16.484;102.872;2023-07-13T10:01:33;11.80;;;6.75;;
18574;SDS011;9417;16.484;102.872;2023-07-13T10:03:53;9.13;;;6.35;;
18574;SDS011;9417;16.484;102.872;2023-07-13T10:06:03;9.68;;;6.57;;
18574;SDS011;9417;16.484;102.872;2023-07-13T10:08:19;8.55;;;6.22;;
18574;SDS011;9417;16.484;102.872;2023-07-13T10:10:29;11.40;;;6.33;;
18574;SDS011;9417;16.484;102.872;2023-07-13T10:12:35;9.32;;;6.45;;
18574;SDS011;9417;16.484;102.872;2023-07-13T10:14:44;7.90;;;6.35;;
18574;SDS011;9417;16.484;102.872;2023-07-13T10:16:52;9.95;;;6.38;;
18574;SDS011;9417;16.484;102.872;2023-07-13T10:19:10;10.50;;;6.80;;
18574;SDS011;9417;16.484;102.872;2023-07-13T10:21:21;9.70;;;6.15;;
18574;SDS011;9417;16.484;102.872;2023-07-13T10:23:38;10.00;;;6.35;;
18574;SDS011;9417;16.484;102.872;2023-07-13T10:25:45;9.75;;;6.07;;
18574;SDS011;9417;16.484;102.872;2023-07-13T10:27:54;11.52;;;6.30;;
18574;SDS011;9417;16.484;102.872;2023-07-13T10:30:11;7.10;;;5.63;;
18574;SDS011;9417;16.484;102.872;2023-07-13T10:32:23;12.23;;;6.35;;
18574;SDS011;9417;16.484;102.872;2023-07-13T10:34:33;7.90;;;5.53;;
18574;SDS011;9417;16.484;102.872;2023-07-13T10:36:40;7.50;;;5.30;;
18574;SDS011;9417;16.484;102.872;2023-07-13T10:38:50;9.85;;;5.30;;
18574;SDS011;9417;16.484;102.872;2023-07-13T10:41:00;11.35;;;5.63;;
18574;SDS011;9417;16.484;102.872;2023-07-13T10:43:11;9.77;;;6.20;;
18574;SDS011;9417;16.484;102.872;2023-07-13T10:45:23;8.73;;;5.47;;
18574;SDS011;9417;16.484;102.872;2023-07-13T10:47:31;7.00;;;5.68;;
18574;SDS011;9417;16.484;102.872;2023-07-13T10:49:41;6.55;;;5.72;;
18574;SDS011;9417;16.484;102.872;2023-07-13T10:51:48;11.80;;;7.20;;
18574;SDS011;9417;16.484;102.872;2023-07-13T10:54:10;9.68;;;6.25;;
18574;SDS011;9417;16.484;102.872;2023-07-13T10:56:24;13.43;;;7.20;;
18574;SDS011;9417;16.484;102.872;2023-07-13T10:58:36;13.10;;;7.68;;
18574;SDS011;9417;16.484;102.872;2023-07-13T11:00:46;12.20;;;8.98;;
18574;SDS011;9417;16.484;102.872;2023-07-13T11:02:56;11.13;;;8.20;;
18574;SDS011;9417;16.484;102.872;2023-07-13T11:05:15;10.88;;;8.10;;
18574;SDS011;9417;16.484;102.872;2023-07-13T11:07:32;12.68;;;7.57;;
18574;SDS011;9417;16.484;102.872;2023-07-13T11:10:03;10.05;;;6.68;;
18574;SDS011;9417;16.484;102.872;2023-07-13T11:12:26;11.65;;;7.30;;
18574;SDS011;9417;16.484;102.872;2023-07-13T11:15:04;13.10;;;7.70;;
18574;SDS011;9417;16.484;102.872;2023-07-13T11:17:36;11.77;;;7.47;;
18574;SDS011;9417;16.484;102.872;2023-07-13T11:19:52;8.75;;;7.05;;
18574;SDS011;9417;16.484;102.872;2023-07-13T11:22:10;10.93;;;8.15;;
18574;SDS011;9417;16.484;102.872;2023-07-13T11:24:18;9.65;;;7.78;;
18574;SDS011;9417;16.484;102.872;2023-07-13T11:26:41;10.43;;;7.78;;
18574;SDS011;9417;16.484;102.872;2023-07-13T11:28:50;16.75;;;15.25;;
18574;SDS011;9417;16.484;102.872;2023-07-13T11:31:12;11.93;;;8.10;;
18574;SDS011;9417;16.484;102.872;2023-07-13T11:33:23;11.82;;;8.38;;
18574;SDS011;9417;16.484;102.872;2023-07-13T11:35:32;11.68;;;7.90;;
18574;SDS011;9417;16.484;102.872;2023-07-13T11:37:44;12.63;;;9.10;;
18574;SDS011;9417;16.484;102.872;2023-07-13T11:39:52;11.88;;;9.98;;
18574;SDS011;9417;16.484;102.872;2023-07-13T11:42:02;17.55;;;12.73;;
18574;SDS011;9417;16.484;102.872;2023-07-13T11:44:12;16.75;;;11.90;;
18574;SDS011;9417;16.484;102.872;2023-07-13T11:46:21;15.27;;;10.93;;
18574;SDS011;9417;16.484;102.872;2023-07-13T11:48:29;17.38;;;11.32;;
18574;SDS011;9417;16.484;102.872;2023-07-13T11:50:37;15.05;;;10.85;;
18574;SDS011;9417;16.484;102.872;2023-07-13T11:52:46;13.43;;;10.45;;
18574;SDS011;9417;16.484;102.872;2023-07-13T11:54:55;13.05;;;10.05;;
18574;SDS011;9417;16.484;102.872;2023-07-13T11:57:10;15.63;;;11.02;;
18574;SDS011;9417;16.484;102.872;2023-07-13T11:59:29;12.77;;;9.88;;
18574;SDS011;9417;16.484;102.872;2023-07-13T12:01:38;11.18;;;8.93;;
18574;SDS011;9417;16.484;102.872;2023-07-13T12:03:50;11.98;;;9.60;;
18574;SDS011;9417;16.484;102.872;2023-07-13T12:05:59;21.77;;;12.60;;
18574;SDS011;9417;16.484;102.872;2023-07-13T12:08:11;20.27;;;13.30;;
18574;SDS011;9417;16.484;102.872;2023-07-13T12:10:26;24.52;;;13.25;;
18574;SDS011;9417;16.484;102.872;2023-07-13T12:12:36;17.75;;;12.38;;
18574;SDS011;9417;16.484;102.872;2023-07-13T12:14:43;19.75;;;10.45;;
18574;SDS011;9417;16.484;102.872;2023-07-13T12:16:50;14.20;;;9.05;;
18574;SDS011;9417;16.484;102.872;2023-07-13T12:18:57;19.45;;;9.00;;
18574;SDS011;9417;16.484;102.872;2023-07-13T12:21:09;21.70;;;12.75;;
18574;SDS011;9417;16.484;102.872;2023-07-13T12:23:23;33.85;;;20.75;;
18574;SDS011;9417;16.484;102.872;2023-07-13T12:25:33;36.55;;;25.15;;
18574;SDS011;9417;16.484;102.872;2023-07-13T12:27:40;34.22;;;22.75;;
18574;SDS011;9417;16.484;102.872;2023-07-13T12:29:51;22.77;;;16.15;;
18574;SDS011;9417;16.484;102.872;2023-07-13T12:32:03;20.00;;;12.93;;
18574;SDS011;9417;16.484;102.872;2023-07-13T12:34:16;13.98;;;9.40;;
18574;SDS011;9417;16.484;102.872;2023-07-13T12:36:24;10.95;;;7.25;;
18574;SDS011;9417;16.484;102.872;2023-07-13T12:38:34;10.38;;;7.10;;
18574;SDS011;9417;16.484;102.872;2023-07-13T12:40:41;10.80;;;6.65;;
18574;SDS011;9417;16.484;102.872;2023-07-13T12:42:49;10.10;;;6.15;;
18574;SDS011;9417;16.484;102.872;2023-07-13T12:44:58;9.70;;;5.70;;
18574;SDS011;9417;16.484;102.872;2023-07-13T12:47:09;11.18;;;6.60;;
18574;SDS011;9417;16.484;102.872;2023-07-13T12:49:22;16.17;;;7.90;;
18574;SDS011;9417;16.484;102.872;2023-07-13T12:51:29;10.75;;;7.28;;